Time;durP1;ratioP1;P1;durP2;ratioP2;P2;SDS_P1;SDS_P2;PMS_P1;PMS_P2;Temp;Humidity;BMP_temperature;BMP_pressure;BME280_temperature;BME280_humidity;BME280_pressure;Samples;Min_cycle;Max_cycle;Signal;HPM_P1;HPM_P2
2023/03/22 00:01:21;;;;;;;10.55;5.90;;;;;;;8.38;94.75;98635.91;4484076;31;20093;-66
2023/03/22 00:03:50;;;;;;;11.52;6.22;;;;;;;8.40;95.32;98633.97;4484078;31;20089;-66
2023/03/22 00:06:18;;;;;;;11.95;7.05;;;;;;;8.36;96.11;98636.03;4483936;31;20106;-67
2023/03/22 00:08:49;;;;;;;9.98;6.53;;;;;;;8.31;97.66;98627.72;4483996;31;20089;-67
2023/03/22 00:11:18;;;;;;;16.37;7.50;;;;;;;8.26;99.33;98629.91;4483985;31;20112;-67
2023/03/22 00:13:45;;;;;;;12.70;7.18;;;;;;;8.29;100.00;98634.88;4483458;31;20179;-67
2023/03/22 00:16:13;;;;;;;13.68;7.75;;;;;;;8.23;100.00;98638.81;4483840;31;20080;-67
2023/03/22 00:18:41;;;;;;;14.30;7.72;;;;;;;8.20;100.00;98636.44;4483691;31;20123;-67
2023/03/22 00:21:13;;;;;;;14.65;7.78;;;;;;;8.22;100.00;98633.72;4484031;31;20104;-67
2023/03/22 00:23:40;;;;;;;15.07;7.55;;;;;;;8.20;100.00;98625.19;4485156;31;20507;-66
2023/03/22 00:26:08;;;;;;;15.35;8.43;;;;;;;8.22;100.00;98620.66;4485895;31;20198;-66
2023/03/22 00:28:36;;;;;;;14.95;8.75;;;;;;;8.14;100.00;98624.72;4486096;31;20099;-66
2023/03/22 00:31:05;;;;;;;14.95;8.52;;;;;;;8.08;100.00;98621.78;4486023;32;20183;-66
2023/03/22 00:33:33;;;;;;;13.35;7.85;;;;;;;8.11;100.00;98627.56;4486005;31;20122;-66
2023/03/22 00:36:05;;;;;;;13.77;8.18;;;;;;;8.10;100.00;98625.09;4485981;31;20096;-66
2023/03/22 00:38:35;;;;;;;14.48;8.07;;;;;;;8.04;100.00;98618.62;4485914;32;20068;-66
2023/03/22 00:41:14;;;;;;;14.87;8.23;;;;;;;7.97;100.00;98626.09;4486042;31;20133;-67
2023/03/22 00:43:44;;;;;;;15.10;8.13;;;;;;;8.00;100.00;98611.97;4485697;31;20093;-66
2023/03/22 00:46:12;;;;;;;15.05;8.38;;;;;;;8.03;100.00;98621.34;4485884;32;20171;-66
2023/03/22 00:48:39;;;;;;;16.25;8.35;;;;;;;8.07;100.00;98615.75;4485663;32;20088;-66
2023/03/22 00:51:08;;;;;;;14.98;8.48;;;;;;;8.09;100.00;98624.28;4485771;31;20164;-66
2023/03/22 00:53:35;;;;;;;14.18;9.05;;;;;;;8.15;100.00;98612.53;4485949;31;20100;-66
2023/03/22 00:56:04;;;;;;;15.45;9.05;;;;;;;8.07;100.00;98617.53;4485750;32;20088;-66
2023/03/22 00:58:33;;;;;;;15.77;9.60;;;;;;;8.06;100.00;98619.31;4485921;32;20157;-66
2023/03/22 01:01:00;;;;;;;16.02;8.90;;;;;;;8.09;100.00;98608.63;4484786;32;20165;-66
2023/03/22 01:03:28;;;;;;;18.00;9.82;;;;;;;8.07;100.00;98615.75;4485985;31;20615;-66
2023/03/22 01:05:55;;;;;;;18.65;9.55;;;;;;;8.14;100.00;98613.47;4485907;31;20107;-66
2023/03/22 01:08:23;;;;;;;17.05;9.95;;;;;;;8.20;100.00;98607.75;4486100;31;20080;-66
2023/03/22 01:10:50;;;;;;;15.27;8.77;;;;;;;8.22;100.00;98607.63;4485996;31;20116;-66
2023/03/22 01:13:18;;;;;;;18.30;9.98;;;;;;;8.24;100.00;98605.72;4485496;32;20110;-66
2023/03/22 01:15:49;;;;;;;17.77;8.93;;;;;;;8.23;100.00;98601.44;4485698;32;20084;-66
2023/03/22 01:18:17;;;;;;;14.55;8.85;;;;;;;8.28;100.00;98607.09;4485575;32;20088;-66
2023/03/22 01:20:44;;;;;;;15.20;8.98;;;;;;;8.28;100.00;98604.50;4485655;31;20116;-66
2023/03/22 01:23:11;;;;;;;13.50;9.18;;;;;;;8.23;100.00;98602.28;4485922;31;20127;-66
2023/03/22 01:25:39;;;;;;;14.10;8.52;;;;;;;8.15;100.00;98600.28;4485573;31;20134;-66
2023/03/22 01:28:07;;;;;;;16.73;8.35;;;;;;;8.08;100.00;98603.53;4484363;32;20524;-66
2023/03/22 01:30:35;;;;;;;17.50;8.52;;;;;;;8.12;100.00;98605.75;4485649;31;20123;-66
2023/03/22 01:33:02;;;;;;;16.65;9.05;;;;;;;8.05;100.00;98606.41;4485565;32;20153;-66
2023/03/22 01:35:31;;;;;;;14.43;8.45;;;;;;;7.94;100.00;98610.69;4485091;31;20430;-66
2023/03/22 01:37:59;;;;;;;19.40;8.98;;;;;;;7.84;100.00;98608.97;4485783;31;20175;-66
2023/03/22 01:40:27;;;;;;;13.13;8.00;;;;;;;7.82;100.00;98603.88;4485627;31;20156;-66
2023/03/22 01:42:55;;;;;;;15.75;8.55;;;;;;;7.85;100.00;98600.19;4484485;32;20175;-66
2023/03/22 01:45:34;;;;;;;13.68;8.25;;;;;;;7.91;100.00;98600.50;4485714;31;20174;-66
2023/03/22 01:48:13;;;;;;;12.93;8.07;;;;;;;7.94;100.00;98602.06;4485444;31;20512;-66
2023/03/22 01:50:48;;;;;;;14.30;8.05;;;;;;;8.00;100.00;98599.75;4484473;32;20115;-66
2023/03/22 01:53:17;;;;;;;12.65;7.18;;;;;;;7.91;100.00;98605.72;4485814;31;20156;-67
2023/03/22 01:55:45;;;;;;;14.63;7.55;;;;;;;7.86;100.00;98613.09;4485379;31;20100;-67
2023/03/22 01:58:16;;;;;;;13.60;7.57;;;;;;;7.79;100.00;98598.91;4484619;32;20092;-67
2023/03/22 02:00:46;;;;;;;15.30;8.25;;;;;;;7.68;100.00;98609.38;4484639;32;20123;-67
2023/03/22 02:03:19;;;;;;;14.27;7.45;;;;;;;7.70;100.00;98607.47;4485582;31;20123;-67
2023/03/22 02:05:46;;;;;;;13.65;8.13;;;;;;;7.72;100.00;98611.63;4485556;31;20080;-67
2023/03/22 02:08:14;;;;;;;15.27;8.15;;;;;;;7.69;100.00;98614.47;4485306;31;20155;-67
2023/03/22 02:10:43;;;;;;;16.08;8.43;;;;;;;7.66;100.00;98617.31;4485532;31;20108;-67
2023/03/22 02:13:16;;;;;;;14.20;8.10;;;;;;;7.59;100.00;98609.13;4484075;32;20171;-67
2023/03/22 02:16:07;;;;;;;14.98;8.57;;;;;;;7.49;100.00;98618.62;4485452;31;20083;-67
2023/03/22 02:19:03;;;;;;;13.40;6.97;;;;;;;7.55;100.00;98619.94;4435973;32;20996;-67
2023/03/22 02:21:55;;;;;;;15.02;8.10;;;;;;;7.55;100.00;98620.75;4435980;32;20117;-67
2023/03/22 02:25:01;;;;;;;13.90;8.05;;;;;;;7.54;100.00;98632.16;4436090;32;20125;-67
2023/03/22 02:27:51;;;;;;;14.63;8.07;;;;;;;7.44;100.00;98632.03;4390135;32;20444;-67
2023/03/22 02:30:36;;;;;;;11.80;7.35;;;;;;;7.32;100.00;98627.78;4390138;32;20110;-67
2023/03/22 02:33:19;;;;;;;14.13;8.13;;;;;;;7.25;100.00;98630.06;4390056;32;20570;-66
2023/03/22 02:36:18;;;;;;;14.87;7.57;;;;;;;7.36;100.00;98628.34;4390247;32;20118;-66
2023/03/22 02:39:24;;;;;;;14.95;7.93;;;;;;;7.34;100.00;98625.06;4390070;32;20437;-66
2023/03/22 02:42:22;;;;;;;13.18;7.60;;;;;;;7.42;100.00;98627.91;4359926;32;20141;-67
2023/03/22 02:45:02;;;;;;;15.45;7.93;;;;;;;7.51;100.00;98632.41;4360349;32;20106;-67
2023/03/22 02:48:04;;;;;;;16.55;8.48;;;;;;;7.56;100.00;98622.41;4358907;32;20121;-67
2023/03/22 02:50:39;;;;;;;13.57;7.47;;;;;;;7.61;100.00;98614.22;4360044;32;20473;-67
2023/03/22 02:53:28;;;;;;;14.38;7.75;;;;;;;7.70;100.00;98610.88;4360211;32;20204;-67
2023/03/22 02:56:33;;;;;;;14.10;7.60;;;;;;;7.84;100.00;98608.97;4385813;32;20463;-67
2023/03/22 02:59:03;;;;;;;13.88;7.20;;;;;;;7.87;100.00;98606.09;4374623;32;20106;-66
2023/03/22 03:01:44;;;;;;;14.52;7.80;;;;;;;7.94;100.00;98613.31;4362378;32;20188;-66
2023/03/22 03:04:16;;;;;;;13.82;8.00;;;;;;;7.92;100.00;98606.56;4368943;32;20506;-66
2023/03/22 03:06:45;;;;;;;17.10;8.27;;;;;;;7.86;100.00;98612.25;4389860;32;20098;-67
2023/03/22 03:09:16;;;;;;;13.70;7.50;;;;;;;7.88;100.00;98611.19;4390246;32;20114;-67
2023/03/22 03:11:47;;;;;;;12.48;6.78;;;;;;;7.92;100.00;98615.22;4398803;32;20133;-67
2023/03/22 03:14:29;;;;;;;13.25;7.70;;;;;;;7.87;100.00;98619.97;4404850;32;20098;-67
2023/03/22 03:17:08;;;;;;;10.35;7.07;;;;;;;7.93;100.00;98619.50;4405098;32;20171;-66
2023/03/22 03:19:54;;;;;;;11.55;6.68;;;;;;;7.88;100.00;98613.81;4426899;32;20208;-67
2023/03/22 03:22:23;;;;;;;12.13;6.90;;;;;;;7.84;100.00;98622.00;4435770;32;20121;-66
2023/03/22 03:24:59;;;;;;;14.73;7.45;;;;;;;7.87;100.00;98630.41;4435227;32;20093;-67
2023/03/22 03:27:39;;;;;;;14.20;7.40;;;;;;;7.91;100.00;98644.03;4422721;32;20676;-66
2023/03/22 03:30:19;;;;;;;13.07;7.37;;;;;;;7.89;100.00;98657.19;4422755;32;20105;-67
2023/03/22 03:33:17;;;;;;;15.75;7.82;;;;;;;7.88;100.00;98658.13;4422668;32;20566;-66
2023/03/22 03:35:54;;;;;;;14.43;6.90;;;;;;;7.96;100.00;98644.47;4449100;32;20080;-66
2023/03/22 03:38:25;;;;;;;12.70;7.18;;;;;;;7.96;100.00;98653.16;4467613;32;20100;-66
2023/03/22 03:41:26;;;;;;;13.82;7.53;;;;;;;7.97;100.00;98648.75;4467403;32;20157;-66
2023/03/22 03:43:56;;;;;;;14.57;6.90;;;;;;;7.95;100.00;98648.88;4404435;32;20467;-66
2023/03/22 03:46:25;;;;;;;14.00;7.35;;;;;;;7.94;100.00;98652.44;4392657;32;20514;-66
2023/03/22 03:48:55;;;;;;;15.55;7.35;;;;;;;7.94;100.00;98656.81;4404542;32;20133;-66
2023/03/22 03:51:23;;;;;;;14.05;8.10;;;;;;;7.93;100.00;98652.56;4391972;32;20094;-66
2023/03/22 03:53:50;;;;;;;14.23;8.73;;;;;;;7.87;100.00;98648.66;4391797;32;20601;-66
2023/03/22 03:56:17;;;;;;;12.55;7.03;;;;;;;7.78;100.00;98647.62;4404597;32;20219;-66
2023/03/22 03:58:45;;;;;;;11.20;6.93;;;;;;;7.77;100.00;98639.94;4405994;32;20132;-66
2023/03/22 04:01:12;;;;;;;12.32;6.70;;;;;;;7.82;100.00;98648.19;4406480;32;20159;-66
2023/03/22 04:03:41;;;;;;;13.15;7.10;;;;;;;7.68;100.00;98657.13;4406643;32;20140;-66
2023/03/22 04:06:12;;;;;;;14.65;7.53;;;;;;;7.70;100.00;98664.81;4406584;32;20181;-67
2023/03/22 04:08:40;;;;;;;14.18;7.78;;;;;;;7.60;100.00;98662.94;4406611;32;20106;-66
2023/03/22 04:11:07;;;;;;;14.75;7.28;;;;;;;7.51;100.00;98655.84;4411695;32;20648;-67
2023/03/22 04:13:35;;;;;;;12.25;7.35;;;;;;;7.47;100.00;98657.03;4421551;32;20484;-67
2023/03/22 04:16:02;;;;;;;12.43;6.80;;;;;;;7.36;100.00;98657.88;4421702;32;20163;-67
2023/03/22 04:18:30;;;;;;;12.32;6.80;;;;;;;7.10;100.00;98657.25;4426051;32;20157;-67
2023/03/22 04:20:58;;;;;;;13.70;7.37;;;;;;;7.20;100.00;98657.41;4486229;31;20123;-67
2023/03/22 04:23:26;;;;;;;13.90;6.72;;;;;;;7.09;100.00;98655.62;4486250;31;20127;-66
2023/03/22 04:25:53;;;;;;;12.85;6.70;;;;;;;7.03;100.00;98648.28;4485828;31;20092;-66
2023/03/22 04:28:22;;;;;;;15.15;7.07;;;;;;;6.95;100.00;98658.44;4486097;32;20092;-66
2023/03/22 04:30:51;;;;;;;13.27;7.20;;;;;;;6.87;100.00;98656.44;4486229;32;20096;-66
2023/03/22 04:33:21;;;;;;;12.23;7.00;;;;;;;6.75;100.00;98658.19;4486193;31;20445;-66
2023/03/22 04:35:55;;;;;;;11.95;6.43;;;;;;;6.61;100.00;98658.41;4486342;31;20499;-66
2023/03/22 04:38:24;;;;;;;11.90;6.60;;;;;;;6.51;100.00;98660.84;4485934;32;20080;-66
2023/03/22 04:40:51;;;;;;;13.93;7.20;;;;;;;6.42;100.00;98664.97;4486129;31;20123;-66
2023/03/22 04:43:19;;;;;;;14.52;7.28;;;;;;;6.35;100.00;98650.75;4485938;31;20147;-66
2023/03/22 04:45:47;;;;;;;12.45;7.25;;;;;;;6.35;100.00;98648.16;4486129;31;20095;-66
2023/03/22 04:48:16;;;;;;;14.05;6.80;;;;;;;6.26;100.00;98667.84;4485871;31;20152;-66
2023/03/22 04:50:44;;;;;;;13.18;7.15;;;;;;;6.20;100.00;98669.13;4485995;31;20474;-66
2023/03/22 04:53:11;;;;;;;11.07;6.28;;;;;;;6.20;100.00;98663.09;4485701;31;20092;-66
2023/03/22 04:55:39;;;;;;;15.30;7.20;;;;;;;6.21;100.00;98660.37;4485933;31;20096;-66
2023/03/22 04:58:06;;;;;;;13.05;6.80;;;;;;;6.21;100.00;98656.97;4485926;32;20180;-67
2023/03/22 05:00:36;;;;;;;12.93;6.85;;;;;;;6.19;100.00;98653.63;4485901;31;20532;-67
2023/03/22 05:03:04;;;;;;;15.07;7.72;;;;;;;6.27;100.00;98663.47;4485836;31;20188;-66
2023/03/22 05:05:31;;;;;;;13.30;7.43;;;;;;;6.32;100.00;98666.59;4485550;32;20498;-66
2023/03/22 05:08:00;;;;;;;12.50;6.78;;;;;;;6.41;100.00;98659.87;4484435;31;20096;-66
2023/03/22 05:10:27;;;;;;;13.15;7.30;;;;;;;6.45;100.00;98661.28;4482100;32;82101;-66
2023/03/22 05:12:56;;;;;;;14.35;6.85;;;;;;;6.59;100.00;98665.50;4484699;32;20123;-66
2023/03/22 05:15:24;;;;;;;15.18;7.80;;;;;;;6.80;100.00;98668.25;4485210;31;20123;-66
2023/03/22 05:17:52;;;;;;;15.55;7.62;;;;;;;6.96;100.00;98665.31;4485620;31;20092;-67
2023/03/22 05:20:19;;;;;;;18.37;8.38;;;;;;;7.09;100.00;98659.06;4484824;31;20096;-67
2023/03/22 05:22:49;;;;;;;13.20;7.20;;;;;;;7.26;100.00;98669.94;4485108;31;20509;-67
2023/03/22 05:25:16;;;;;;;16.65;7.50;;;;;;;7.39;100.00;98667.25;4485436;31;20083;-67
2023/03/22 05:27:44;;;;;;;17.52;8.18;;;;;;;7.62;100.00;98678.47;4485322;31;20123;-67
2023/03/22 05:30:13;;;;;;;11.93;7.05;;;;;;;7.81;100.00;98678.69;4485589;31;20537;-67
2023/03/22 05:32:44;;;;;;;12.82;7.18;;;;;;;7.94;100.00;98678.50;4485290;31;20648;-66
2023/03/22 05:35:12;;;;;;;15.10;7.85;;;;;;;8.07;100.00;98682.75;4485700;32;20682;-67
2023/03/22 05:37:40;;;;;;;14.40;8.05;;;;;;;8.18;100.00;98690.56;4485637;31;20096;-66
2023/03/22 05:40:08;;;;;;;14.25;7.20;;;;;;;8.28;100.00;98677.56;4485485;32;20169;-67
2023/03/22 05:42:36;;;;;;;15.25;7.10;;;;;;;8.41;100.00;98673.00;4485687;31;20100;-66
2023/03/22 05:45:05;;;;;;;13.88;7.20;;;;;;;8.60;100.00;98676.75;4485555;32;20080;-67
2023/03/22 05:47:32;;;;;;;14.52;7.47;;;;;;;8.66;100.00;98682.31;4485578;31;20124;-66
2023/03/22 05:50:00;;;;;;;10.77;6.87;;;;;;;8.75;100.00;98682.47;4485568;31;20115;-67
2023/03/22 05:52:28;;;;;;;17.98;7.87;;;;;;;8.83;100.00;98687.91;4485409;32;20119;-67
2023/03/22 05:54:55;;;;;;;17.52;7.07;;;;;;;8.90;100.00;98691.66;4485403;32;20214;-67
2023/03/22 05:57:23;;;;;;;16.05;8.32;;;;;;;9.04;100.00;98691.34;4485265;31;20576;-67
2023/03/22 05:59:52;;;;;;;14.02;7.53;;;;;;;9.22;100.00;98691.56;4485549;31;20539;-67
2023/03/22 06:02:21;;;;;;;15.18;7.62;;;;;;;9.33;100.00;98695.06;4485302;31;20485;-67
2023/03/22 06:04:49;;;;;;;20.67;8.63;;;;;;;9.46;100.00;98697.44;4485468;31;20175;-67
2023/03/22 06:07:17;;;;;;;13.70;7.20;;;;;;;9.58;100.00;98701.59;4485241;31;20096;-67
2023/03/22 06:09:45;;;;;;;13.27;7.78;;;;;;;9.72;100.00;98709.09;4484906;31;20458;-67
2023/03/22 06:12:14;;;;;;;13.32;7.12;;;;;;;9.83;100.00;98713.41;4484483;31;20093;-67
2023/03/22 06:14:42;;;;;;;13.27;7.65;;;;;;;9.92;100.00;98717.00;4485119;31;20100;-67
2023/03/22 06:17:10;;;;;;;15.63;7.20;;;;;;;10.08;100.00;98714.69;4484922;32;20091;-67
2023/03/22 06:19:38;;;;;;;11.88;6.93;;;;;;;10.25;100.00;98722.81;4485301;31;20438;-67
2023/03/22 06:22:05;;;;;;;13.07;6.78;;;;;;;10.35;100.00;98713.22;4484303;31;20722;-67
2023/03/22 06:24:33;;;;;;;12.37;7.22;;;;;;;10.53;100.00;98708.13;4483196;32;20472;-67
2023/03/22 06:27:01;;;;;;;13.88;7.68;;;;;;;10.71;100.00;98713.50;4484214;31;20146;-67
2023/03/22 06:29:29;;;;;;;13.25;6.97;;;;;;;10.84;100.00;98715.84;4484143;31;20084;-67
2023/03/22 06:31:57;;;;;;;16.60;7.57;;;;;;;10.97;100.00;98718.16;4482797;31;20161;-67
2023/03/22 06:34:25;;;;;;;12.90;7.62;;;;;;;11.05;100.00;98723.50;4484491;32;20096;-67
2023/03/22 06:36:52;;;;;;;11.90;6.97;;;;;;;10.97;100.00;98729.47;4485143;31;20083;-67
2023/03/22 06:39:21;;;;;;;21.12;8.15;;;;;;;11.09;100.00;98727.50;4483955;32;20183;-67
2023/03/22 06:41:49;;;;;;;14.38;7.20;;;;;;;11.05;100.00;98723.50;4484998;31;20537;-67
2023/03/22 06:44:16;;;;;;;14.93;7.68;;;;;;;11.29;100.00;98730.91;4485108;31;20502;-67
2023/03/22 06:46:44;;;;;;;13.55;7.05;;;;;;;11.46;100.00;98737.22;4485068;31;20092;-67
2023/03/22 06:49:12;;;;;;;11.12;7.03;;;;;;;11.48;100.00;98729.22;4484844;31;20173;-67
2023/03/22 06:51:40;;;;;;;22.35;7.75;;;;;;;11.54;100.00;98728.63;4485121;31;20092;-67
2023/03/22 06:54:07;;;;;;;23.58;8.32;;;;;;;11.50;100.00;98735.13;4484992;31;20100;-67
2023/03/22 06:56:35;;;;;;;24.77;7.15;;;;;;;11.09;100.00;98722.28;4485006;31;20139;-67
2023/03/22 06:59:02;;;;;;;18.05;7.53;;;;;;;11.13;100.00;98721.03;4485179;31;20101;-67
2023/03/22 07:01:29;;;;;;;17.30;7.25;;;;;;;11.28;100.00;98725.81;4484864;31;20799;-67
2023/03/22 07:03:56;;;;;;;31.45;7.00;;;;;;;11.33;100.00;98741.97;4484575;31;20157;-67
2023/03/22 07:06:24;;;;;;;11.35;6.80;;;;;;;11.49;100.00;98757.06;4484804;31;20085;-67
2023/03/22 07:08:51;;;;;;;11.23;6.15;;;;;;;11.65;100.00;98759.91;4484722;31;20138;-66
2023/03/22 07:11:21;;;;;;;13.73;7.12;;;;;;;11.73;97.92;98753.94;4484840;31;20108;-67
2023/03/22 07:13:49;;;;;;;14.25;6.40;;;;;;;11.90;99.16;98755.00;4484545;32;20114;-67
2023/03/22 07:16:23;;;;;;;11.35;6.50;;;;;;;12.01;96.78;98754.00;4484443;31;20096;-67
2023/03/22 07:18:51;;;;;;;18.23;7.50;;;;;;;11.74;96.80;98750.37;4484559;31;20088;-66
2023/03/22 07:21:19;;;;;;;10.65;6.12;;;;;;;11.72;97.86;98749.69;4484890;31;20159;-66
2023/03/22 07:23:46;;;;;;;12.93;7.95;;;;;;;11.59;97.80;98757.88;4484051;31;20176;-67
2023/03/22 07:26:14;;;;;;;14.30;6.47;;;;;;;11.57;97.28;98762.44;4484759;31;20097;-67
2023/03/22 07:28:43;;;;;;;14.52;6.78;;;;;;;11.80;97.92;98760.28;4484624;31;20445;-66
2023/03/22 07:31:11;;;;;;;11.15;6.45;;;;;;;12.10;96.36;98761.00;4484780;31;20168;-67
2023/03/22 07:33:40;;;;;;;12.88;6.85;;;;;;;12.26;95.22;98757.72;4479472;31;20126;-66
2023/03/22 07:36:08;;;;;;;19.75;6.97;;;;;;;12.37;93.16;98762.75;4481789;31;20135;-67
2023/03/22 07:38:36;;;;;;;15.80;7.12;;;;;;;12.25;91.51;98769.22;4479418;32;20112;-67
2023/03/22 07:41:04;;;;;;;18.62;6.95;;;;;;;12.37;91.13;98769.78;4483773;31;20088;-67
2023/03/22 07:43:34;;;;;;;19.15;7.25;;;;;;;12.53;89.66;98762.09;4474928;31;20115;-67
2023/03/22 07:46:20;;;;;;;30.00;8.38;;;;;;;12.47;85.55;98760.06;4474762;31;20100;-68
2023/03/22 07:48:48;;;;;;;17.25;6.80;;;;;;;12.37;87.91;98756.66;4477395;32;20567;-68
2023/03/22 07:51:18;;;;;;;17.90;8.00;;;;;;;12.47;88.23;98761.88;4476974;31;20239;-67
2023/03/22 07:53:46;;;;;;;36.10;7.40;;;;;;;12.43;87.66;98761.34;4480681;31;20096;-67
2023/03/22 07:56:14;;;;;;;13.93;7.32;;;;;;;12.38;90.14;98748.66;4476396;31;20150;-67
2023/03/22 07:58:41;;;;;;;13.60;6.50;;;;;;;12.10;90.60;98750.50;4472853;31;20104;-67
2023/03/22 08:01:08;;;;;;;15.60;6.85;;;;;;;12.39;90.47;98757.34;4481843;32;20127;-66
2023/03/22 08:03:41;;;;;;;11.90;7.25;;;;;;;12.50;85.13;98761.56;4475436;32;20110;-66
2023/03/22 08:06:11;;;;;;;14.00;6.62;;;;;;;12.33;85.57;98750.06;4480095;32;20693;-67
2023/03/22 08:08:38;;;;;;;11.45;6.50;;;;;;;12.51;87.80;98748.28;4481243;31;20101;-67
2023/03/22 08:11:06;;;;;;;14.68;7.18;;;;;;;12.68;84.85;98753.69;4476170;32;20160;-66
2023/03/22 08:13:33;;;;;;;19.95;8.10;;;;;;;12.80;86.46;98751.66;4482732;31;20794;-67
2023/03/22 08:16:01;;;;;;;14.90;7.22;;;;;;;12.82;85.04;98750.50;4468528;32;20108;-66
2023/03/22 08:18:28;;;;;;;16.92;7.30;;;;;;;12.71;85.06;98751.56;4473078;31;20153;-66
2023/03/22 08:20:57;;;;;;;16.60;7.70;;;;;;;12.78;84.76;98759.69;4474842;31;20114;-66
2023/03/22 08:23:26;;;;;;;13.90;7.20;;;;;;;13.05;85.38;98755.28;4474898;32;20512;-66
2023/03/22 08:26:10;;;;;;;14.52;7.22;;;;;;;13.30;83.93;98751.03;4469748;32;20161;-66
2023/03/22 08:28:37;;;;;;;17.45;7.60;;;;;;;13.36;80.75;98757.50;4481586;31;20522;-66
2023/03/22 08:31:15;;;;;;;14.93;7.10;;;;;;;13.39;79.28;98754.56;4482160;31;20147;-66
2023/03/22 08:33:43;;;;;;;12.88;7.35;;;;;;;13.61;79.44;98767.19;4482850;31;20123;-67
2023/03/22 08:36:13;;;;;;;15.07;7.65;;;;;;;13.65;77.81;98773.78;4478237;31;20097;-67
2023/03/22 08:38:41;;;;;;;25.67;7.75;;;;;;;13.74;79.39;98768.56;4482790;32;20118;-67
2023/03/22 08:41:09;;;;;;;15.27;7.87;;;;;;;13.76;78.46;98766.59;4480810;31;20140;-67
2023/03/22 08:43:37;;;;;;;17.52;7.55;;;;;;;13.71;76.29;98771.53;4481572;31;20092;-67
2023/03/22 08:46:04;;;;;;;14.00;8.00;;;;;;;13.93;76.02;98770.97;4478211;31;20107;-67
2023/03/22 08:48:34;;;;;;;13.32;7.45;;;;;;;14.11;75.52;98777.91;4483460;31;20146;-67
2023/03/22 08:51:03;;;;;;;14.13;7.72;;;;;;;14.12;76.19;98769.84;4477877;31;20092;-67
2023/03/22 08:53:34;;;;;;;16.12;7.37;;;;;;;14.26;74.90;98780.78;4478513;32;20727;-66
2023/03/22 08:56:03;;;;;;;13.90;7.22;;;;;;;14.40;71.92;98766.13;4484338;32;20112;-67
2023/03/22 08:58:32;;;;;;;13.32;7.32;;;;;;;14.54;72.65;98773.44;4484976;31;20598;-67
2023/03/22 09:01:04;;;;;;;15.25;7.32;;;;;;;14.63;78.25;98769.03;4485718;32;20245;-67
2023/03/22 09:03:32;;;;;;;16.12;8.18;;;;;;;14.23;76.05;98760.00;4485177;31;20579;-67
2023/03/22 09:05:59;;;;;;;17.00;7.90;;;;;;;14.29;75.67;98760.22;4476608;32;20101;-67
2023/03/22 09:08:28;;;;;;;14.77;7.90;;;;;;;14.45;77.42;98771.78;4482362;31;20107;-67
2023/03/22 09:10:56;;;;;;;13.93;7.90;;;;;;;14.47;75.04;98775.88;4483673;31;20091;-67
2023/03/22 09:13:24;;;;;;;12.98;7.68;;;;;;;14.37;73.53;98775.22;4474633;32;20089;-67
2023/03/22 09:15:51;;;;;;;12.20;7.15;;;;;;;14.37;75.59;98776.03;4484657;31;20092;-67
2023/03/22 09:18:20;;;;;;;13.07;7.43;;;;;;;14.40;73.74;98771.41;4485115;31;20104;-67
2023/03/22 09:20:47;;;;;;;12.93;8.75;;;;;;;14.34;74.34;98775.53;4484128;32;20087;-67
2023/03/22 09:23:18;;;;;;;16.17;8.45;;;;;;;14.41;75.76;98773.87;4485476;32;20076;-67
2023/03/22 09:25:45;;;;;;;13.90;7.87;;;;;;;14.31;76.01;98770.59;4482931;31;20636;-67
2023/03/22 09:28:13;;;;;;;13.62;7.62;;;;;;;14.40;75.83;98764.34;4485161;31;20096;-68
2023/03/22 09:30:41;;;;;;;14.57;8.55;;;;;;;14.32;72.56;98767.78;4485306;31;20484;-67
2023/03/22 09:33:10;;;;;;;12.63;7.45;;;;;;;14.28;72.70;98766.47;4485680;31;20104;-68
2023/03/22 09:35:41;;;;;;;15.75;7.85;;;;;;;14.31;75.19;98768.78;4485036;31;20120;-67
2023/03/22 09:38:11;;;;;;;13.98;7.97;;;;;;;14.30;74.37;98759.22;4485622;31;20118;-67
2023/03/22 09:40:50;;;;;;;12.02;7.65;;;;;;;14.30;73.38;98755.75;4485110;31;20091;-66
2023/03/22 09:43:18;;;;;;;15.45;8.60;;;;;;;14.25;74.39;98758.06;4482827;32;20175;-66
2023/03/22 09:45:49;;;;;;;16.52;7.97;;;;;;;14.21;75.70;98762.81;4479145;31;20419;-66
2023/03/22 09:48:22;;;;;;;14.95;7.87;;;;;;;14.24;76.83;98757.22;4484056;32;20120;-66
2023/03/22 09:50:52;;;;;;;15.07;7.70;;;;;;;14.36;75.10;98755.09;4482046;32;20874;-67
2023/03/22 09:53:20;;;;;;;13.65;7.93;;;;;;;14.15;74.26;98760.81;4479134;31;20155;-66
2023/03/22 09:56:10;;;;;;;15.77;8.50;;;;;;;14.00;73.69;98755.34;4478119;31;20108;-67
2023/03/22 09:58:49;;;;;;;14.98;8.63;;;;;;;13.65;75.85;98757.97;4485102;32;20081;-67
2023/03/22 10:01:38;;;;;;;14.00;8.18;;;;;;;13.55;77.32;98757.28;4483799;32;20449;-67
2023/03/22 10:04:12;;;;;;;16.23;9.45;;;;;;;13.82;76.62;98758.06;4484589;32;20141;-67
2023/03/22 10:06:43;;;;;;;14.20;8.57;;;;;;;13.77;78.66;98755.09;4483793;31;20434;-67
2023/03/22 10:09:56;;;;;;;18.48;8.85;;;;;;;13.73;79.50;98751.09;4485060;31;20107;-67
2023/03/22 10:12:30;;;;;;;16.85;9.93;;;;;;;13.77;78.04;98748.00;4484634;31;20172;-67
2023/03/22 10:15:29;;;;;;;15.75;9.40;;;;;;;13.82;78.62;98753.63;4483457;31;20161;-67
2023/03/22 10:17:57;;;;;;;17.58;9.52;;;;;;;13.78;78.74;98762.00;4448814;32;20466;-67
2023/03/22 10:20:33;;;;;;;17.08;9.02;;;;;;;13.70;81.08;98748.78;4450337;32;20135;-66
2023/03/22 10:23:01;;;;;;;19.75;9.07;;;;;;;13.60;81.37;98755.00;4435224;32;20116;-67
2023/03/22 10:25:39;;;;;;;16.65;9.40;;;;;;;13.68;81.50;98750.78;4422936;32;20123;-67
2023/03/22 10:28:15;;;;;;;16.58;9.65;;;;;;;13.81;80.13;98751.16;4421410;32;20438;-67
2023/03/22 10:30:44;;;;;;;17.77;9.65;;;;;;;13.77;82.11;98747.19;4434806;32;20672;-67
2023/03/22 10:33:21;;;;;;;16.40;9.70;;;;;;;13.93;82.54;98749.88;4421201;32;20098;-68
2023/03/22 10:35:50;;;;;;;15.65;10.25;;;;;;;14.04;81.80;98756.69;4434156;32;20339;-67
2023/03/22 10:38:24;;;;;;;20.15;10.90;;;;;;;14.07;79.06;98750.28;4434068;32;20109;-68
2023/03/22 10:40:54;;;;;;;18.17;10.05;;;;;;;13.67;79.54;98749.94;4423106;32;20156;-66
2023/03/22 10:43:31;;;;;;;20.42;10.48;;;;;;;13.75;80.52;98744.72;4420150;32;20128;-67
2023/03/22 10:46:02;;;;;;;14.82;9.23;;;;;;;13.65;80.76;98746.62;4435029;32;20113;-67
2023/03/22 10:48:33;;;;;;;18.83;9.50;;;;;;;13.94;80.72;98751.53;4442513;32;20488;-67
2023/03/22 10:51:00;;;;;;;23.90;10.48;;;;;;;14.14;82.97;98746.00;4435318;32;20117;-66
2023/03/22 10:53:39;;;;;;;17.67;10.32;;;;;;;14.02;83.43;98748.94;4440196;32;20097;-67
2023/03/22 10:56:15;;;;;;;19.73;9.80;;;;;;;14.19;82.33;98743.72;4481106;31;20474;-66
2023/03/22 10:58:43;;;;;;;19.27;10.07;;;;;;;14.33;80.91;98742.25;4476778;32;20104;-67
2023/03/22 11:01:14;;;;;;;18.48;9.68;;;;;;;14.23;82.56;98736.31;4476092;31;20829;-65
2023/03/22 11:03:43;;;;;;;16.08;9.70;;;;;;;14.35;81.15;98737.63;4474457;32;20089;-67
2023/03/22 11:06:13;;;;;;;21.92;9.80;;;;;;;14.50;80.32;98729.91;4469652;31;20226;-67
2023/03/22 11:08:46;;;;;;;17.35;10.30;;;;;;;14.62;79.44;98725.19;4471088;31;20097;-67
2023/03/22 11:11:22;;;;;;;15.02;9.88;;;;;;;14.94;78.90;98726.97;4472899;32;20134;-67
2023/03/22 11:13:54;;;;;;;18.48;10.60;;;;;;;15.29;75.80;98724.97;4470893;32;20253;-67
2023/03/22 11:16:22;;;;;;;16.33;9.32;;;;;;;15.38;73.27;98723.97;4474039;31;20077;-67
2023/03/22 11:18:49;;;;;;;15.65;9.60;;;;;;;15.61;72.66;98717.97;4463471;32;20453;-67
2023/03/22 11:21:17;;;;;;;15.07;9.88;;;;;;;15.97;71.38;98712.19;4470583;32;20096;-67
2023/03/22 11:23:54;;;;;;;17.60;9.65;;;;;;;16.38;70.29;98709.31;4467716;32;20161;-67
2023/03/22 11:26:33;;;;;;;15.68;10.07;;;;;;;16.66;70.36;98703.50;4473198;31;20171;-67
2023/03/22 11:29:13;;;;;;;19.92;10.48;;;;;;;17.09;68.04;98693.19;4459321;32;20446;-66
2023/03/22 11:31:53;;;;;;;15.60;9.27;;;;;;;17.17;69.46;98702.91;4467281;32;20179;-67
2023/03/22 11:34:26;;;;;;;21.95;10.82;;;;;;;17.49;67.61;98701.72;4470056;32;20101;-66
2023/03/22 11:36:57;;;;;;;17.75;10.93;;;;;;;17.49;64.27;98704.34;4470266;31;20127;-67
2023/03/22 11:39:29;;;;;;;20.95;10.75;;;;;;;17.45;64.13;98697.78;4470513;32;20119;-67
2023/03/22 11:42:00;;;;;;;20.23;11.98;;;;;;;17.71;65.64;98694.66;4472014;32;20131;-67
2023/03/22 11:44:32;;;;;;;21.70;10.88;;;;;;;17.93;60.18;98692.09;4468720;32;20092;-67